KHUL/HUL METAR and TAF weather

Enter ICAO airport designator
Station Type Date Time Source
KHUL METAR 2021/02/25 14:53 UTC NOAA

KHUL 251453Z AUTO 32012G25KT 10SM CLR M03/M10 A2962 RMK AO2 PK WND 32029/1422 UPB1359E33SNB1357E1358 SLP038 P0000 60000 T10331100 51041


Station Type Date Time Source
KHUL Decoded METAR 2021/02/25 14:53 UTC NOAA

HOULTON INT'L AIRPORT, ME, United States (KHUL) 46-07N 067-48W 150M
Feb 25, 2021 - 09:53 AM EST / 2021.02.25 1453 UTC
Wind: from the NW (320 degrees) at 14 MPH (12 KT) gusting to 29 MPH (25 KT):0
Visibility: 10 mile(s):0
Sky conditions: clear
Precipitation last hour: A trace
Temperature: 26.1 F (-3.3 C)
Windchill: 14 F (-10 C):1
Dew Point: 14.0 F (-10.0 C)
Relative Humidity: 59%
Pressure (altimeter): 29.62 in. Hg (1003 hPa)
Pressure tendency: 0.12 inches (4.1 hPa) higher than three hours ago
ob: KHUL 251453Z AUTO 32012G25KT 10SM CLR M03/M10 A2962 RMK AO2 PK WND 32029/1422 UPB1359E33SNB1357E1358 SLP038 P0000 60000 T10331100 51041
cycle: 15

Station Type Date Time Source
KHUL TAF 2021/02/25 12:27 UTC NOAA

TAF KHUL 251124Z 2512/2612 34014G24KT 2SM -SN OVC010
FM251300 33015G27KT 4SM BLSN BKN027
FM251400 33015G27KT 4SM BLSN BKN035
FM251800 30014G24KT 4SM BLSN SCT050
FM260000 30009KT P6SM SCT040 WS020/31040KT
FM260600 29007KT P6SM FEW100

Example: see airport list